Tropical Cyclones
[Index]
Main Index Home Page Stock Weather Photos Extreme Storms Discussion Storm News and Storm Chasing Reports Tropical Cyclones / Hurricanes / Typhoons Weather Data and Links Wild Fires / Bushfires Weather Observation Techniques Weather Picture Catalogue Tornado Pictures and Reports Stock Video Footage and DVDs for sale
Season 1979-1980 Tropical Cyclone FRED Track Map
Season 1979-1980 Summaries: [BoM-AU] [JTWC-AU] [JTWC-SIO] [JTWC-SPAC] [JTWC-SH]
<<- Previous TC | BoM 1979-1980 Season | Next TC ->>

click for intensity scale information  Lat/long Grid: Show Hide

 Date Labels: Show Hide

Bureau of Meteorology Tropical Cyclone Data

Name: FRED
Number: 604 / 197980_11

20 Feb 1980 00:00 UTC to 28 Feb 1980 00:00 UTC

    date/time    lat    long    hPa   cat  kts
1980-02-20 00   11.6   102.3   1005                     
1980-02-20 06   11.7   102.6   1002                     
1980-02-20 12   11.9   102.8   1000                     
1980-02-20 18   12.1   103.0    997                     
1980-02-21 00   12.4   103.0    994    1                
1980-02-21 06   12.7   102.9    989    1                
1980-02-21 12   13.0   102.8    984    2                
1980-02-21 18   13.1   102.3    978    2                
1980-02-22 00   13.2   101.8    971    2                
1980-02-22 06   13.3   101.5    964    3                
1980-02-22 12   13.4   101.1    956    3                
1980-02-22 18   13.5   100.8    950    4                
1980-02-23 00   13.6   100.2    945    4                
1980-02-23 06   13.8    99.3    940    4                
1980-02-23 12   14.0    98.2    936    4                
1980-02-23 18   14.3    97.0    930    4                
1980-02-24 00   14.7    95.6    930    4                
1980-02-24 06   15.1    94.3    930    4                
1980-02-24 12   15.6    93.3    930    4                
1980-02-24 18   16.0    92.1    930    4                
1980-02-25 00   16.6    90.8    930    4                
1980-02-25 06   17.2    89.8    930    4                
1980-02-25 12   17.9    88.9    930    4                
1980-02-25 18   18.6    88.0    938    4                
1980-02-26 00   19.6    87.3    945    4                
1980-02-26 06   20.2    87.0    954    4                
1980-02-26 12   20.8    86.8    963    3                
1980-02-26 18   21.5    86.8    969    3                
1980-02-27 00   22.1    86.8    975    2                
1980-02-27 06   22.8    86.9    982    2                
1980-02-27 12   23.6    87.0    988    1                
1980-02-27 18   24.5    87.2    994    1                
1980-02-28 00   25.6    87.5   1000                     
Winds are 10-min average.

Tropical cyclone tracks developed by Michael Bath using data from the Bureau of Meteorology and Google Maps.


[Australian Severe Weather index] [Copyright Notice] [Email Contacts] [Search This Site] [Privacy Policy]
Document: tropical_cyclone_fred.htm Updated: 30 May 2013